sensor_id;sensor_type;location;lat;lon;timestamp;P1;durP1;ratioP1;P2;durP2;ratioP2
8040;SDS011;4063;48.140;10.250;2024-02-26T00:01:27;5.70;;;4.90;;
8040;SDS011;4063;48.140;10.250;2024-02-26T00:03:53;7.40;;;5.57;;
8040;SDS011;4063;48.140;10.250;2024-02-26T00:06:24;7.23;;;4.80;;
8040;SDS011;4063;48.140;10.250;2024-02-26T00:08:50;5.33;;;4.83;;
8040;SDS011;4063;48.140;10.250;2024-02-26T00:11:16;6.47;;;4.73;;
8040;SDS011;4063;48.140;10.250;2024-02-26T00:13:42;9.53;;;4.60;;
8040;SDS011;4063;48.140;10.250;2024-02-26T00:16:08;5.60;;;4.00;;
8040;SDS011;4063;48.140;10.250;2024-02-26T00:18:34;5.33;;;4.27;;
8040;SDS011;4063;48.140;10.250;2024-02-26T00:21:00;4.23;;;3.63;;
8040;SDS011;4063;48.140;10.250;2024-02-26T00:23:25;4.20;;;3.73;;
8040;SDS011;4063;48.140;10.250;2024-02-26T00:25:52;4.33;;;3.27;;
8040;SDS011;4063;48.140;10.250;2024-02-26T00:28:18;7.87;;;3.57;;
8040;SDS011;4063;48.140;10.250;2024-02-26T00:30:47;3.50;;;3.03;;
8040;SDS011;4063;48.140;10.250;2024-02-26T00:33:16;5.53;;;3.63;;
8040;SDS011;4063;48.140;10.250;2024-02-26T00:35:42;4.13;;;3.20;;
8040;SDS011;4063;48.140;10.250;2024-02-26T00:38:08;3.43;;;3.10;;
8040;SDS011;4063;48.140;10.250;2024-02-26T00:40:34;3.43;;;3.13;;
8040;SDS011;4063;48.140;10.250;2024-02-26T00:43:01;3.93;;;3.13;;
8040;SDS011;4063;48.140;10.250;2024-02-26T00:45:27;3.23;;;2.90;;
8040;SDS011;4063;48.140;10.250;2024-02-26T00:47:53;4.47;;;3.03;;
8040;SDS011;4063;48.140;10.250;2024-02-26T00:50:19;2.97;;;2.53;;
8040;SDS011;4063;48.140;10.250;2024-02-26T00:52:45;2.70;;;2.50;;
8040;SDS011;4063;48.140;10.250;2024-02-26T00:55:11;3.00;;;2.70;;
8040;SDS011;4063;48.140;10.250;2024-02-26T00:57:37;5.90;;;2.90;;
8040;SDS011;4063;48.140;10.250;2024-02-26T01:00:03;5.23;;;3.07;;
8040;SDS011;4063;48.140;10.250;2024-02-26T01:02:29;3.67;;;3.07;;
8040;SDS011;4063;48.140;10.250;2024-02-26T01:04:55;7.07;;;3.83;;
8040;SDS011;4063;48.140;10.250;2024-02-26T01:07:21;4.57;;;3.50;;
8040;SDS011;4063;48.140;10.250;2024-02-26T01:09:47;5.87;;;3.40;;
8040;SDS011;4063;48.140;10.250;2024-02-26T01:12:13;5.40;;;4.13;;
8040;SDS011;4063;48.140;10.250;2024-02-26T01:14:39;8.10;;;3.90;;
8040;SDS011;4063;48.140;10.250;2024-02-26T01:17:05;5.30;;;3.67;;
8040;SDS011;4063;48.140;10.250;2024-02-26T01:19:31;4.77;;;3.73;;
8040;SDS011;4063;48.140;10.250;2024-02-26T01:21:57;3.53;;;3.23;;
8040;SDS011;4063;48.140;10.250;2024-02-26T01:24:23;3.77;;;3.10;;
8040;SDS011;4063;48.140;10.250;2024-02-26T01:26:49;3.60;;;3.23;;
8040;SDS011;4063;48.140;10.250;2024-02-26T01:29:15;4.00;;;2.93;;
8040;SDS011;4063;48.140;10.250;2024-02-26T01:31:41;4.20;;;2.90;;
8040;SDS011;4063;48.140;10.250;2024-02-26T01:34:07;3.67;;;2.70;;
8040;SDS011;4063;48.140;10.250;2024-02-26T01:36:33;4.67;;;2.87;;
8040;SDS011;4063;48.140;10.250;2024-02-26T01:38:59;7.40;;;3.07;;
8040;SDS011;4063;48.140;10.250;2024-02-26T01:41:25;2.60;;;2.40;;
8040;SDS011;4063;48.140;10.250;2024-02-26T01:43:51;3.43;;;2.60;;
8040;SDS011;4063;48.140;10.250;2024-02-26T01:46:17;3.07;;;2.53;;
8040;SDS011;4063;48.140;10.250;2024-02-26T01:48:44;2.30;;;2.10;;
8040;SDS011;4063;48.140;10.250;2024-02-26T01:51:12;3.10;;;2.63;;
8040;SDS011;4063;48.140;10.250;2024-02-26T01:53:38;4.17;;;2.83;;
8040;SDS011;4063;48.140;10.250;2024-02-26T01:56:04;2.77;;;2.57;;
8040;SDS011;4063;48.140;10.250;2024-02-26T01:58:30;3.03;;;2.40;;
8040;SDS011;4063;48.140;10.250;2024-02-26T02:00:57;5.00;;;3.10;;
8040;SDS011;4063;48.140;10.250;2024-02-26T02:03:23;7.60;;;3.43;;
8040;SDS011;4063;48.140;10.250;2024-02-26T02:05:49;6.27;;;3.60;;
8040;SDS011;4063;48.140;10.250;2024-02-26T02:08:15;3.50;;;3.10;;
8040;SDS011;4063;48.140;10.250;2024-02-26T02:10:41;7.47;;;3.67;;
8040;SDS011;4063;48.140;10.250;2024-02-26T02:13:08;6.50;;;4.00;;
8040;SDS011;4063;48.140;10.250;2024-02-26T02:15:34;9.10;;;4.70;;
8040;SDS011;4063;48.140;10.250;2024-02-26T02:18:00;7.50;;;4.47;;
8040;SDS011;4063;48.140;10.250;2024-02-26T02:20:31;6.23;;;4.30;;
8040;SDS011;4063;48.140;10.250;2024-02-26T02:22:58;6.80;;;4.30;;
8040;SDS011;4063;48.140;10.250;2024-02-26T02:25:24;5.53;;;4.00;;
8040;SDS011;4063;48.140;10.250;2024-02-26T02:27:50;6.53;;;3.73;;
8040;SDS011;4063;48.140;10.250;2024-02-26T02:30:16;7.77;;;3.87;;
8040;SDS011;4063;48.140;10.250;2024-02-26T02:32:42;4.20;;;3.43;;
8040;SDS011;4063;48.140;10.250;2024-02-26T02:35:09;6.47;;;4.30;;
8040;SDS011;4063;48.140;10.250;2024-02-26T02:37:35;4.33;;;3.93;;
8040;SDS011;4063;48.140;10.250;2024-02-26T02:40:02;4.60;;;3.63;;
8040;SDS011;4063;48.140;10.250;2024-02-26T02:42:28;4.47;;;3.73;;
8040;SDS011;4063;48.140;10.250;2024-02-26T02:44:54;7.40;;;3.60;;
8040;SDS011;4063;48.140;10.250;2024-02-26T02:47:19;4.43;;;4.03;;
8040;SDS011;4063;48.140;10.250;2024-02-26T02:49:45;5.63;;;4.07;;
8040;SDS011;4063;48.140;10.250;2024-02-26T02:52:11;6.53;;;4.97;;
8040;SDS011;4063;48.140;10.250;2024-02-26T02:54:37;6.10;;;4.83;;
8040;SDS011;4063;48.140;10.250;2024-02-26T02:57:06;5.30;;;3.80;;
8040;SDS011;4063;48.140;10.250;2024-02-26T02:59:32;4.63;;;3.30;;
8040;SDS011;4063;48.140;10.250;2024-02-26T03:01:58;4.07;;;2.90;;
8040;SDS011;4063;48.140;10.250;2024-02-26T03:04:24;5.03;;;3.10;;
8040;SDS011;4063;48.140;10.250;2024-02-26T03:06:50;6.10;;;2.87;;
8040;SDS011;4063;48.140;10.250;2024-02-26T03:09:16;3.43;;;3.07;;
8040;SDS011;4063;48.140;10.250;2024-02-26T03:11:42;4.60;;;2.63;;
8040;SDS011;4063;48.140;10.250;2024-02-26T03:14:08;3.47;;;2.80;;
8040;SDS011;4063;48.140;10.250;2024-02-26T03:16:34;3.80;;;2.90;;
8040;SDS011;4063;48.140;10.250;2024-02-26T03:19:00;3.40;;;2.60;;
8040;SDS011;4063;48.140;10.250;2024-02-26T03:21:28;2.97;;;2.67;;
8040;SDS011;4063;48.140;10.250;2024-02-26T03:23:54;3.00;;;2.50;;
8040;SDS011;4063;48.140;10.250;2024-02-26T03:26:20;3.33;;;2.73;;
8040;SDS011;4063;48.140;10.250;2024-02-26T03:28:49;3.17;;;2.63;;
8040;SDS011;4063;48.140;10.250;2024-02-26T03:31:15;3.33;;;2.60;;
8040;SDS011;4063;48.140;10.250;2024-02-26T03:33:41;5.03;;;3.27;;
8040;SDS011;4063;48.140;10.250;2024-02-26T03:36:07;8.00;;;3.60;;
8040;SDS011;4063;48.140;10.250;2024-02-26T03:38:33;4.17;;;3.13;;
8040;SDS011;4063;48.140;10.250;2024-02-26T03:40:59;4.70;;;2.97;;
8040;SDS011;4063;48.140;10.250;2024-02-26T03:43:25;3.33;;;2.83;;
8040;SDS011;4063;48.140;10.250;2024-02-26T03:45:51;3.47;;;3.00;;
8040;SDS011;4063;48.140;10.250;2024-02-26T03:48:16;4.13;;;3.00;;
8040;SDS011;4063;48.140;10.250;2024-02-26T03:50:42;3.83;;;2.73;;
8040;SDS011;4063;48.140;10.250;2024-02-26T03:53:08;6.07;;;3.20;;
8040;SDS011;4063;48.140;10.250;2024-02-26T03:55:37;3.43;;;2.93;;
8040;SDS011;4063;48.140;10.250;2024-02-26T03:58:03;5.33;;;3.63;;
8040;SDS011;4063;48.140;10.250;2024-02-26T04:00:29;14.77;;;8.03;;
8040;SDS011;4063;48.140;10.250;2024-02-26T04:02:55;9.23;;;5.23;;
8040;SDS011;4063;48.140;10.250;2024-02-26T04:05:21;8.80;;;7.13;;
8040;SDS011;4063;48.140;10.250;2024-02-26T04:07:47;6.10;;;4.70;;
8040;SDS011;4063;48.140;10.250;2024-02-26T04:10:13;3.93;;;3.30;;
8040;SDS011;4063;48.140;10.250;2024-02-26T04:12:40;6.33;;;3.07;;
8040;SDS011;4063;48.140;10.250;2024-02-26T04:15:07;4.43;;;3.70;;
8040;SDS011;4063;48.140;10.250;2024-02-26T04:17:33;5.30;;;4.50;;
8040;SDS011;4063;48.140;10.250;2024-02-26T04:19:59;4.93;;;4.30;;
8040;SDS011;4063;48.140;10.250;2024-02-26T04:22:25;8.70;;;4.47;;
8040;SDS011;4063;48.140;10.250;2024-02-26T04:24:51;4.47;;;4.07;;
8040;SDS011;4063;48.140;10.250;2024-02-26T04:27:17;5.13;;;3.90;;
8040;SDS011;4063;48.140;10.250;2024-02-26T04:29:43;4.50;;;3.67;;
8040;SDS011;4063;48.140;10.250;2024-02-26T04:32:10;5.17;;;4.33;;
8040;SDS011;4063;48.140;10.250;2024-02-26T04:34:35;5.80;;;4.30;;
8040;SDS011;4063;48.140;10.250;2024-02-26T04:37:02;6.00;;;3.80;;
8040;SDS011;4063;48.140;10.250;2024-02-26T04:39:28;6.53;;;4.40;;
8040;SDS011;4063;48.140;10.250;2024-02-26T04:41:54;6.07;;;4.43;;
8040;SDS011;4063;48.140;10.250;2024-02-26T04:44:20;6.33;;;4.03;;
8040;SDS011;4063;48.140;10.250;2024-02-26T04:46:46;4.93;;;4.17;;
8040;SDS011;4063;48.140;10.250;2024-02-26T04:49:12;4.63;;;4.00;;
8040;SDS011;4063;48.140;10.250;2024-02-26T04:51:37;4.73;;;4.13;;
8040;SDS011;4063;48.140;10.250;2024-02-26T04:54:03;6.80;;;4.43;;
8040;SDS011;4063;48.140;10.250;2024-02-26T04:56:29;17.30;;;7.90;;
8040;SDS011;4063;48.140;10.250;2024-02-26T04:58:55;12.23;;;6.73;;
8040;SDS011;4063;48.140;10.250;2024-02-26T05:01:21;6.47;;;4.90;;
8040;SDS011;4063;48.140;10.250;2024-02-26T05:03:48;4.73;;;3.67;;
8040;SDS011;4063;48.140;10.250;2024-02-26T05:06:14;11.77;;;7.77;;
8040;SDS011;4063;48.140;10.250;2024-02-26T05:08:40;7.00;;;5.07;;
8040;SDS011;4063;48.140;10.250;2024-02-26T05:11:06;9.40;;;5.63;;
8040;SDS011;4063;48.140;10.250;2024-02-26T05:13:32;7.83;;;5.67;;
8040;SDS011;4063;48.140;10.250;2024-02-26T05:15:58;9.13;;;6.23;;
8040;SDS011;4063;48.140;10.250;2024-02-26T05:18:24;17.20;;;9.07;;
8040;SDS011;4063;48.140;10.250;2024-02-26T05:20:50;6.27;;;4.57;;
8040;SDS011;4063;48.140;10.250;2024-02-26T05:23:16;5.67;;;3.40;;
8040;SDS011;4063;48.140;10.250;2024-02-26T05:25:42;5.23;;;3.10;;
8040;SDS011;4063;48.140;10.250;2024-02-26T05:28:12;4.50;;;3.47;;
8040;SDS011;4063;48.140;10.250;2024-02-26T05:30:38;4.73;;;3.10;;
8040;SDS011;4063;48.140;10.250;2024-02-26T05:33:05;3.20;;;2.40;;
8040;SDS011;4063;48.140;10.250;2024-02-26T05:35:31;3.20;;;2.73;;
8040;SDS011;4063;48.140;10.250;2024-02-26T05:52:35;3.40;;;2.70;;
8040;SDS011;4063;48.140;10.250;2024-02-26T05:55:01;4.90;;;3.23;;
8040;SDS011;4063;48.140;10.250;2024-02-26T05:57:27;5.27;;;3.70;;
8040;SDS011;4063;48.140;10.250;2024-02-26T05:59:53;5.43;;;4.20;;
8040;SDS011;4063;48.140;10.250;2024-02-26T06:02:21;5.53;;;4.20;;
8040;SDS011;4063;48.140;10.250;2024-02-26T06:04:47;10.70;;;6.53;;
8040;SDS011;4063;48.140;10.250;2024-02-26T06:07:13;9.50;;;5.40;;
8040;SDS011;4063;48.140;10.250;2024-02-26T06:09:39;6.73;;;4.23;;
8040;SDS011;4063;48.140;10.250;2024-02-26T06:12:05;5.77;;;4.53;;
8040;SDS011;4063;48.140;10.250;2024-02-26T06:14:31;9.67;;;7.10;;
8040;SDS011;4063;48.140;10.250;2024-02-26T06:16:57;13.53;;;6.90;;
8040;SDS011;4063;48.140;10.250;2024-02-26T06:19:23;10.33;;;5.27;;
8040;SDS011;4063;48.140;10.250;2024-02-26T06:21:49;12.87;;;6.37;;
8040;SDS011;4063;48.140;10.250;2024-02-26T06:24:16;6.93;;;4.07;;
8040;SDS011;4063;48.140;10.250;2024-02-26T06:26:42;4.93;;;3.60;;
8040;SDS011;4063;48.140;10.250;2024-02-26T06:29:07;6.80;;;3.50;;
8040;SDS011;4063;48.140;10.250;2024-02-26T06:31:33;3.87;;;3.47;;
8040;SDS011;4063;48.140;10.250;2024-02-26T06:33:59;6.60;;;3.70;;
8040;SDS011;4063;48.140;10.250;2024-02-26T06:36:25;4.13;;;3.43;;
8040;SDS011;4063;48.140;10.250;2024-02-26T06:38:51;6.33;;;3.70;;
8040;SDS011;4063;48.140;10.250;2024-02-26T06:41:19;4.23;;;3.30;;
8040;SDS011;4063;48.140;10.250;2024-02-26T06:43:45;5.60;;;4.10;;
8040;SDS011;4063;48.140;10.250;2024-02-26T06:46:11;6.23;;;4.57;;
8040;SDS011;4063;48.140;10.250;2024-02-26T06:48:37;6.77;;;4.90;;
8040;SDS011;4063;48.140;10.250;2024-02-26T06:51:03;5.17;;;4.47;;
8040;SDS011;4063;48.140;10.250;2024-02-26T06:53:29;6.73;;;4.03;;
8040;SDS011;4063;48.140;10.250;2024-02-26T06:55:55;6.63;;;3.97;;
8040;SDS011;4063;48.140;10.250;2024-02-26T06:58:21;7.53;;;4.20;;
8040;SDS011;4063;48.140;10.250;2024-02-26T07:00:47;5.40;;;3.93;;
8040;SDS011;4063;48.140;10.250;2024-02-26T07:03:13;4.47;;;3.50;;
8040;SDS011;4063;48.140;10.250;2024-02-26T07:05:39;4.20;;;3.30;;
8040;SDS011;4063;48.140;10.250;2024-02-26T07:08:05;4.80;;;3.50;;
8040;SDS011;4063;48.140;10.250;2024-02-26T07:10:32;5.37;;;3.37;;
8040;SDS011;4063;48.140;10.250;2024-02-26T07:12:57;5.33;;;3.30;;
8040;SDS011;4063;48.140;10.250;2024-02-26T07:15:23;3.20;;;2.90;;
8040;SDS011;4063;48.140;10.250;2024-02-26T07:17:49;4.53;;;4.03;;
8040;SDS011;4063;48.140;10.250;2024-02-26T07:20:15;5.00;;;3.87;;
8040;SDS011;4063;48.140;10.250;2024-02-26T07:22:43;6.47;;;3.80;;
8040;SDS011;4063;48.140;10.250;2024-02-26T07:25:09;4.83;;;3.93;;
8040;SDS011;4063;48.140;10.250;2024-02-26T07:27:38;5.73;;;3.70;;
8040;SDS011;4063;48.140;10.250;2024-02-26T07:30:05;5.43;;;4.00;;
8040;SDS011;4063;48.140;10.250;2024-02-26T07:32:31;6.33;;;3.80;;
8040;SDS011;4063;48.140;10.250;2024-02-26T07:34:57;7.97;;;5.20;;
8040;SDS011;4063;48.140;10.250;2024-02-26T07:37:23;4.97;;;4.07;;
8040;SDS011;4063;48.140;10.250;2024-02-26T07:39:48;6.17;;;3.87;;
8040;SDS011;4063;48.140;10.250;2024-02-26T07:42:14;5.13;;;3.77;;
8040;SDS011;4063;48.140;10.250;2024-02-26T07:44:40;8.40;;;4.73;;
8040;SDS011;4063;48.140;10.250;2024-02-26T07:47:08;15.90;;;7.67;;
8040;SDS011;4063;48.140;10.250;2024-02-26T07:49:34;12.47;;;6.40;;
8040;SDS011;4063;48.140;10.250;2024-02-26T07:52:00;8.40;;;4.60;;
8040;SDS011;4063;48.140;10.250;2024-02-26T07:54:26;3.83;;;3.10;;
8040;SDS011;4063;48.140;10.250;2024-02-26T07:56:52;6.70;;;3.43;;
8040;SDS011;4063;48.140;10.250;2024-02-26T07:59:18;4.40;;;3.37;;
8040;SDS011;4063;48.140;10.250;2024-02-26T08:01:44;5.13;;;3.30;;
8040;SDS011;4063;48.140;10.250;2024-02-26T08:04:14;7.30;;;3.03;;
8040;SDS011;4063;48.140;10.250;2024-02-26T08:06:40;5.93;;;3.23;;
8040;SDS011;4063;48.140;10.250;2024-02-26T08:09:08;6.87;;;4.80;;
8040;SDS011;4063;48.140;10.250;2024-02-26T08:11:34;14.53;;;6.20;;
8040;SDS011;4063;48.140;10.250;2024-02-26T08:14:00;8.53;;;4.57;;
8040;SDS011;4063;48.140;10.250;2024-02-26T08:16:26;5.13;;;3.50;;
8040;SDS011;4063;48.140;10.250;2024-02-26T08:18:52;5.00;;;4.23;;
8040;SDS011;4063;48.140;10.250;2024-02-26T08:21:18;9.07;;;5.77;;
8040;SDS011;4063;48.140;10.250;2024-02-26T08:23:44;7.43;;;4.83;;
8040;SDS011;4063;48.140;10.250;2024-02-26T08:26:10;3.83;;;2.97;;
8040;SDS011;4063;48.140;10.250;2024-02-26T08:28:37;4.63;;;2.50;;
8040;SDS011;4063;48.140;10.250;2024-02-26T08:31:03;5.50;;;3.80;;
8040;SDS011;4063;48.140;10.250;2024-02-26T08:33:29;6.33;;;4.10;;
8040;SDS011;4063;48.140;10.250;2024-02-26T08:35:56;5.00;;;3.93;;
8040;SDS011;4063;48.140;10.250;2024-02-26T08:38:22;6.83;;;3.83;;
8040;SDS011;4063;48.140;10.250;2024-02-26T08:40:48;4.90;;;3.53;;
8040;SDS011;4063;48.140;10.250;2024-02-26T08:43:14;7.57;;;4.47;;
8040;SDS011;4063;48.140;10.250;2024-02-26T08:45:40;5.10;;;3.10;;
8040;SDS011;4063;48.140;10.250;2024-02-26T08:48:06;3.73;;;2.90;;
8040;SDS011;4063;48.140;10.250;2024-02-26T08:50:32;3.07;;;2.77;;
8040;SDS011;4063;48.140;10.250;2024-02-26T08:52:58;4.07;;;3.67;;
8040;SDS011;4063;48.140;10.250;2024-02-26T08:55:26;6.73;;;3.60;;
8040;SDS011;4063;48.140;10.250;2024-02-26T08:57:52;6.17;;;3.60;;
8040;SDS011;4063;48.140;10.250;2024-02-26T09:00:18;4.03;;;3.20;;
8040;SDS011;4063;48.140;10.250;2024-02-26T09:02:47;5.53;;;3.13;;
8040;SDS011;4063;48.140;10.250;2024-02-26T09:05:14;3.97;;;3.03;;
8040;SDS011;4063;48.140;10.250;2024-02-26T09:07:40;4.20;;;2.50;;
8040;SDS011;4063;48.140;10.250;2024-02-26T09:10:06;4.17;;;3.20;;
8040;SDS011;4063;48.140;10.250;2024-02-26T09:12:36;4.67;;;2.93;;
8040;SDS011;4063;48.140;10.250;2024-02-26T09:15:02;3.87;;;3.03;;
8040;SDS011;4063;48.140;10.250;2024-02-26T09:17:28;5.07;;;2.90;;
8040;SDS011;4063;48.140;10.250;2024-02-26T09:19:54;3.47;;;3.07;;
8040;SDS011;4063;48.140;10.250;2024-02-26T09:22:21;5.20;;;3.10;;
8040;SDS011;4063;48.140;10.250;2024-02-26T09:24:47;3.60;;;2.97;;
8040;SDS011;4063;48.140;10.250;2024-02-26T09:27:15;5.70;;;5.20;;
8040;SDS011;4063;48.140;10.250;2024-02-26T09:29:48;5.17;;;3.23;;
8040;SDS011;4063;48.140;10.250;2024-02-26T09:32:14;4.43;;;3.27;;
8040;SDS011;4063;48.140;10.250;2024-02-26T09:34:40;5.13;;;3.70;;
8040;SDS011;4063;48.140;10.250;2024-02-26T09:37:06;8.30;;;3.53;;
8040;SDS011;4063;48.140;10.250;2024-02-26T09:39:32;3.70;;;3.40;;
8040;SDS011;4063;48.140;10.250;2024-02-26T09:41:58;5.07;;;4.13;;
8040;SDS011;4063;48.140;10.250;2024-02-26T09:44:25;4.80;;;4.30;;
8040;SDS011;4063;48.140;10.250;2024-02-26T09:46:55;5.37;;;3.90;;
8040;SDS011;4063;48.140;10.250;2024-02-26T09:49:21;3.40;;;2.87;;
8040;SDS011;4063;48.140;10.250;2024-02-26T09:51:49;8.27;;;3.80;;
8040;SDS011;4063;48.140;10.250;2024-02-26T09:54:16;5.77;;;4.23;;
8040;SDS011;4063;48.140;10.250;2024-02-26T09:56:42;4.93;;;4.37;;
8040;SDS011;4063;48.140;10.250;2024-02-26T09:59:13;4.30;;;3.00;;
8040;SDS011;4063;48.140;10.250;2024-02-26T10:01:40;3.37;;;2.70;;
8040;SDS011;4063;48.140;10.250;2024-02-26T10:04:08;4.33;;;2.70;;
8040;SDS011;4063;48.140;10.250;2024-02-26T10:06:34;3.13;;;2.80;;
8040;SDS011;4063;48.140;10.250;2024-02-26T10:09:01;4.10;;;2.73;;
8040;SDS011;4063;48.140;10.250;2024-02-26T10:11:31;5.70;;;3.30;;
8040;SDS011;4063;48.140;10.250;2024-02-26T10:13:57;5.33;;;2.67;;
8040;SDS011;4063;48.140;10.250;2024-02-26T10:16:24;4.50;;;2.60;;
8040;SDS011;4063;48.140;10.250;2024-02-26T10:18:51;3.13;;;2.77;;
8040;SDS011;4063;48.140;10.250;2024-02-26T10:21:19;2.77;;;2.53;;
8040;SDS011;4063;48.140;10.250;2024-02-26T10:23:45;2.90;;;2.57;;
8040;SDS011;4063;48.140;10.250;2024-02-26T10:26:12;5.73;;;3.97;;
8040;SDS011;4063;48.140;10.250;2024-02-26T10:28:39;3.97;;;3.10;;
8040;SDS011;4063;48.140;10.250;2024-02-26T10:31:06;6.43;;;4.77;;
8040;SDS011;4063;48.140;10.250;2024-02-26T10:33:33;6.73;;;4.60;;
8040;SDS011;4063;48.140;10.250;2024-02-26T10:36:01;3.00;;;2.70;;
8040;SDS011;4063;48.140;10.250;2024-02-26T10:38:27;4.73;;;3.10;;
8040;SDS011;4063;48.140;10.250;2024-02-26T10:40:53;4.37;;;3.10;;
8040;SDS011;4063;48.140;10.250;2024-02-26T10:43:19;3.73;;;3.10;;
8040;SDS011;4063;48.140;10.250;2024-02-26T10:45:45;3.40;;;2.57;;
8040;SDS011;4063;48.140;10.250;2024-02-26T10:48:13;3.70;;;2.93;;
8040;SDS011;4063;48.140;10.250;2024-02-26T10:50:39;3.30;;;3.00;;
8040;SDS011;4063;48.140;10.250;2024-02-26T10:53:07;3.77;;;3.17;;
8040;SDS011;4063;48.140;10.250;2024-02-26T10:55:36;3.60;;;2.90;;
8040;SDS011;4063;48.140;10.250;2024-02-26T10:58:02;4.73;;;3.47;;
8040;SDS011;4063;48.140;10.250;2024-02-26T11:00:29;3.00;;;2.80;;
8040;SDS011;4063;48.140;10.250;2024-02-26T11:02:56;5.67;;;3.23;;
8040;SDS011;4063;48.140;10.250;2024-02-26T11:05:26;6.63;;;3.67;;
8040;SDS011;4063;48.140;10.250;2024-02-26T11:07:52;4.27;;;3.53;;
8040;SDS011;4063;48.140;10.250;2024-02-26T11:10:18;4.13;;;3.27;;
8040;SDS011;4063;48.140;10.250;2024-02-26T11:12:44;4.37;;;3.37;;
8040;SDS011;4063;48.140;10.250;2024-02-26T11:15:12;3.93;;;3.10;;
8040;SDS011;4063;48.140;10.250;2024-02-26T11:17:38;4.60;;;3.37;;
8040;SDS011;4063;48.140;10.250;2024-02-26T11:20:04;3.53;;;2.93;;
8040;SDS011;4063;48.140;10.250;2024-02-26T11:22:30;4.60;;;3.40;;
8040;SDS011;4063;48.140;10.250;2024-02-26T11:24:58;5.93;;;3.33;;
8040;SDS011;4063;48.140;10.250;2024-02-26T11:27:36;3.90;;;3.10;;
8040;SDS011;4063;48.140;10.250;2024-02-26T11:30:10;3.47;;;3.17;;
8040;SDS011;4063;48.140;10.250;2024-02-26T11:32:36;3.70;;;3.40;;
8040;SDS011;4063;48.140;10.250;2024-02-26T11:35:04;4.43;;;3.37;;
8040;SDS011;4063;48.140;10.250;2024-02-26T11:37:30;3.80;;;3.43;;
8040;SDS011;4063;48.140;10.250;2024-02-26T11:39:58;4.10;;;3.03;;
8040;SDS011;4063;48.140;10.250;2024-02-26T11:42:26;4.80;;;3.27;;
8040;SDS011;4063;48.140;10.250;2024-02-26T11:44:53;4.00;;;3.10;;
8040;SDS011;4063;48.140;10.250;2024-02-26T11:47:21;4.13;;;3.17;;
8040;SDS011;4063;48.140;10.250;2024-02-26T11:49:48;3.83;;;3.30;;
8040;SDS011;4063;48.140;10.250;2024-02-26T11:52:14;3.80;;;3.50;;
8040;SDS011;4063;48.140;10.250;2024-02-26T12:02:41;7.70;;;3.50;;
8040;SDS011;4063;48.140;10.250;2024-02-26T12:05:09;7.73;;;3.90;;
8040;SDS011;4063;48.140;10.250;2024-02-26T12:07:37;6.03;;;4.10;;
8040;SDS011;4063;48.140;10.250;2024-02-26T12:13:00;5.23;;;3.87;;
8040;SDS011;4063;48.140;10.250;2024-02-26T12:15:36;4.63;;;4.10;;
8040;SDS011;4063;48.140;10.250;2024-02-26T12:18:03;5.75;;;4.15;;
8040;SDS011;4063;48.140;10.250;2024-02-26T12:20:29;6.15;;;4.13;;
8040;SDS011;4063;48.140;10.250;2024-02-26T12:22:56;4.70;;;4.20;;
8040;SDS011;4063;48.140;10.250;2024-02-26T12:25:27;4.67;;;3.90;;
8040;SDS011;4063;48.140;10.250;2024-02-26T12:27:54;5.20;;;4.13;;
8040;SDS011;4063;48.140;10.250;2024-02-26T12:30:20;4.65;;;4.13;;
8040;SDS011;4063;48.140;10.250;2024-02-26T12:32:49;5.20;;;4.17;;
8040;SDS011;4063;48.140;10.250;2024-02-26T12:35:16;4.23;;;3.43;;
8040;SDS011;4063;48.140;10.250;2024-02-26T12:37:42;5.40;;;4.23;;
8040;SDS011;4063;48.140;10.250;2024-02-26T12:40:09;6.23;;;4.50;;
8040;SDS011;4063;48.140;10.250;2024-02-26T12:42:35;5.17;;;4.30;;
8040;SDS011;4063;48.140;10.250;2024-02-26T12:45:05;7.13;;;5.00;;
8040;SDS011;4063;48.140;10.250;2024-02-26T12:47:37;5.53;;;4.00;;
8040;SDS011;4063;48.140;10.250;2024-02-26T12:50:04;6.17;;;4.33;;
8040;SDS011;4063;48.140;10.250;2024-02-26T12:52:31;5.87;;;4.60;;
8040;SDS011;4063;48.140;10.250;2024-02-26T12:54:57;4.83;;;4.23;;
8040;SDS011;4063;48.140;10.250;2024-02-26T12:57:23;5.60;;;4.17;;
8040;SDS011;4063;48.140;10.250;2024-02-26T12:59:50;5.13;;;4.40;;
8040;SDS011;4063;48.140;10.250;2024-02-26T13:02:16;6.40;;;4.70;;
8040;SDS011;4063;48.140;10.250;2024-02-26T13:04:42;9.37;;;4.83;;
8040;SDS011;4063;48.140;10.250;2024-02-26T13:07:09;5.20;;;3.87;;
8040;SDS011;4063;48.140;10.250;2024-02-26T13:09:35;5.27;;;4.53;;
8040;SDS011;4063;48.140;10.250;2024-02-26T13:12:03;8.20;;;4.17;;
8040;SDS011;4063;48.140;10.250;2024-02-26T13:14:30;4.57;;;3.50;;
8040;SDS011;4063;48.140;10.250;2024-02-26T13:16:57;4.47;;;3.47;;
8040;SDS011;4063;48.140;10.250;2024-02-26T13:19:23;4.43;;;3.83;;
8040;SDS011;4063;48.140;10.250;2024-02-26T13:34:00;5.10;;;4.00;;
8040;SDS011;4063;48.140;10.250;2024-02-26T13:36:26;5.53;;;4.43;;
8040;SDS011;4063;48.140;10.250;2024-02-26T13:38:52;4.60;;;3.90;;
8040;SDS011;4063;48.140;10.250;2024-02-26T13:41:19;4.97;;;4.10;;
8040;SDS011;4063;48.140;10.250;2024-02-26T13:43:46;9.50;;;6.67;;
8040;SDS011;4063;48.140;10.250;2024-02-26T13:46:12;4.27;;;3.80;;
8040;SDS011;4063;48.140;10.250;2024-02-26T13:48:40;4.33;;;3.40;;
8040;SDS011;4063;48.140;10.250;2024-02-26T13:51:06;3.87;;;3.50;;
8040;SDS011;4063;48.140;10.250;2024-02-26T13:53:32;7.13;;;4.37;;
8040;SDS011;4063;48.140;10.250;2024-02-26T13:55:58;6.27;;;3.67;;
8040;SDS011;4063;48.140;10.250;2024-02-26T13:58:26;4.77;;;3.90;;
8040;SDS011;4063;48.140;10.250;2024-02-26T14:00:52;3.90;;;3.20;;
8040;SDS011;4063;48.140;10.250;2024-02-26T14:03:19;5.30;;;3.57;;
8040;SDS011;4063;48.140;10.250;2024-02-26T14:05:45;3.95;;;3.30;;
8040;SDS011;4063;48.140;10.250;2024-02-26T14:08:11;4.03;;;3.40;;
8040;SDS011;4063;48.140;10.250;2024-02-26T14:10:37;4.47;;;3.07;;
8040;SDS011;4063;48.140;10.250;2024-02-26T14:13:04;3.35;;;3.05;;
8040;SDS011;4063;48.140;10.250;2024-02-26T14:15:30;4.47;;;3.70;;
8040;SDS011;4063;48.140;10.250;2024-02-26T14:17:57;5.00;;;4.28;;
8040;SDS011;4063;48.140;10.250;2024-02-26T14:20:23;9.82;;;4.05;;
8040;SDS011;4063;48.140;10.250;2024-02-26T14:22:50;3.70;;;3.40;;
8040;SDS011;4063;48.140;10.250;2024-02-26T14:25:18;4.05;;;3.42;;
8040;SDS011;4063;48.140;10.250;2024-02-26T14:27:45;3.35;;;3.05;;
8040;SDS011;4063;48.140;10.250;2024-02-26T14:30:11;3.63;;;3.00;;
8040;SDS011;4063;48.140;10.250;2024-02-26T14:32:37;3.53;;;3.13;;
8040;SDS011;4063;48.140;10.250;2024-02-26T14:35:07;3.40;;;3.08;;
8040;SDS011;4063;48.140;10.250;2024-02-26T14:37:34;6.80;;;4.57;;
8040;SDS011;4063;48.140;10.250;2024-02-26T14:40:00;8.98;;;4.60;;
8040;SDS011;4063;48.140;10.250;2024-02-26T14:42:27;6.45;;;4.63;;
8040;SDS011;4063;48.140;10.250;2024-02-26T14:44:53;5.53;;;3.92;;
8040;SDS011;4063;48.140;10.250;2024-02-26T14:47:19;5.72;;;3.85;;
8040;SDS011;4063;48.140;10.250;2024-02-26T14:49:45;3.57;;;3.27;;
8040;SDS011;4063;48.140;10.250;2024-02-26T14:52:13;3.93;;;3.40;;
8040;SDS011;4063;48.140;10.250;2024-02-26T14:54:39;3.93;;;3.50;;
8040;SDS011;4063;48.140;10.250;2024-02-26T14:57:05;5.63;;;3.57;;
8040;SDS011;4063;48.140;10.250;2024-02-26T14:59:32;5.60;;;3.77;;
8040;SDS011;4063;48.140;10.250;2024-02-26T15:01:58;6.33;;;3.93;;
8040;SDS011;4063;48.140;10.250;2024-02-26T15:04:25;4.97;;;4.30;;
8040;SDS011;4063;48.140;10.250;2024-02-26T15:06:51;5.57;;;3.67;;
8040;SDS011;4063;48.140;10.250;2024-02-26T15:09:17;5.03;;;4.27;;
8040;SDS011;4063;48.140;10.250;2024-02-26T15:11:43;4.90;;;4.40;;
8040;SDS011;4063;48.140;10.250;2024-02-26T15:14:10;12.50;;;6.40;;
8040;SDS011;4063;48.140;10.250;2024-02-26T15:16:36;11.30;;;7.73;;
8040;SDS011;4063;48.140;10.250;2024-02-26T15:19:02;9.53;;;6.33;;
8040;SDS011;4063;48.140;10.250;2024-02-26T15:21:29;7.80;;;5.83;;
8040;SDS011;4063;48.140;10.250;2024-02-26T15:23:55;8.07;;;5.23;;
8040;SDS011;4063;48.140;10.250;2024-02-26T15:26:21;7.53;;;5.07;;
8040;SDS011;4063;48.140;10.250;2024-02-26T15:28:47;14.20;;;9.37;;
8040;SDS011;4063;48.140;10.250;2024-02-26T15:31:17;9.77;;;5.20;;
8040;SDS011;4063;48.140;10.250;2024-02-26T15:33:43;6.70;;;4.80;;